Aviation Digital Data Service (ADDS)

Output produced by METARs form (0459 UTC 20 September 2020)
found at http://aviationweather.gov/metar/data/
 
METAR text: KCVH 200455Z AUTO 19003KT 10SM CLR 16/13 A2994 RMK A01
Conditions at: KCVH (HOLLISTER MUNI , CA, US) observed 0455 UTC 20 September 2020
Temperature: 16.0°C (61°F)
Dewpoint: 13.0°C (55°F) [RH = 82%]
Pressure (altimeter): 29.94 inches Hg (1014.0 mb)
Winds: from the S (190 degrees) at 3 MPH (3 knots; 1.5 m/s)
Visibility: 10 or more miles (16+ km)
Ceiling: at least 12,000 feet AGL
Clouds: sky clear below 12,000 feet AGL
Weather: automated observation with no human augmentation;
there may or may not be significant weather present at this time